Time;durP1;ratioP1;P1;durP2;ratioP2;P2;SDS_P1;SDS_P2;PMS_P1;PMS_P2;Temp;Humidity;BMP_temperature;BMP_pressure;BME280_temperature;BME280_humidity;BME280_pressure;Samples;Min_cycle;Max_cycle;Signal;HPM_P1;HPM_P2
2022/03/18 00:02:23;;;;;;;;;;;4.40;99.90;;;;;;5093254;28;19908;-78
2022/03/18 00:04:50;;;;;;;;;;;4.50;99.90;;;;;;5092967;28;20241;-78
2022/03/18 00:07:16;;;;;;;;;;;4.50;99.90;;;;;;5093453;28;19912;-78
2022/03/18 00:09:42;;;;;;;;;;;4.60;99.90;;;;;;5093725;28;19908;-78
2022/03/18 00:12:08;;;;;;;;;;;4.60;99.90;;;;;;5093457;28;19922;-78
2022/03/18 00:14:34;;;;;;;;;;;4.60;99.90;;;;;;5093655;28;20066;-78
2022/03/18 00:17:00;;;;;;;;;;;4.50;99.90;;;;;;5093581;28;20373;-77
2022/03/18 00:19:27;;;;;;;;;;;4.40;99.90;;;;;;5093468;28;19990;-78
2022/03/18 00:22:00;;;;;;;;;;;4.30;99.90;;;;;;5093516;28;20382;-78
2022/03/18 00:24:26;;;;;;;;;;;4.20;99.90;;;;;;5099808;28;19948;-78
2022/03/18 00:26:51;;;;;;;;;;;4.20;99.90;;;;;;5113563;28;19971;-77
2022/03/18 00:29:17;;;;;;;;;;;4.30;99.90;;;;;;5112970;28;19943;-78
2022/03/18 00:31:43;;;;;;;;;;;4.40;99.90;;;;;;5093873;28;19962;-78
2022/03/18 00:34:10;;;;;;;;;;;4.30;99.90;;;;;;5092994;28;19916;-78
2022/03/18 00:36:36;;;;;;;;;;;4.20;99.90;;;;;;5093355;28;19908;-78
2022/03/18 00:39:02;;;;;;;;;;;4.20;99.90;;;;;;5092896;28;20372;-77
2022/03/18 00:41:28;;;;;;;;;;;4.10;99.90;;;;;;5093624;28;19995;-78
2022/03/18 00:43:53;;;;;;;;;;;4.00;99.90;;;;;;5093521;28;19915;-78
2022/03/18 00:46:22;;;;;;;;;;;4.00;99.90;;;;;;5092757;28;19963;-78
2022/03/18 00:54:16;;;;;;;;;;;4.10;99.90;;;;;;5093107;28;19975;-78
2022/03/18 00:56:42;;;;;;;;;;;4.10;99.90;;;;;;5093869;28;19978;-78
2022/03/18 00:59:08;;;;;;;;;;;4.10;99.90;;;;;;5092629;28;19909;-78
2022/03/18 01:01:33;;;;;;;;;;;4.00;99.90;;;;;;5093598;28;19915;-78
2022/03/18 01:03:59;;;;;;;;;;;4.00;99.90;;;;;;5093524;28;19908;-78
2022/03/18 01:06:24;;;;;;;;;;;3.90;99.90;;;;;;5092890;28;19908;-78
2022/03/18 01:08:50;;;;;;;;;;;4.00;99.90;;;;;;5093329;28;19908;-78
2022/03/18 01:11:16;;;;;;;;;;;4.10;99.90;;;;;;5111049;28;19916;-78
2022/03/18 01:13:41;;;;;;;;;;;4.10;99.90;;;;;;5102828;28;19922;-78
2022/03/18 01:16:07;;;;;;;;;;;4.20;99.90;;;;;;5092955;28;20407;-77
2022/03/18 01:18:51;;;;;;;;;;;4.10;99.90;;;;;;5093122;28;19965;-79
2022/03/18 01:21:17;;;;;;;;;;;4.10;99.90;;;;;;5092352;28;19908;-78
2022/03/18 01:23:42;;;;;;;;;;;4.00;99.90;;;;;;5092787;28;19912;-78
2022/03/18 01:26:08;;;;;;;;;;;3.90;99.90;;;;;;5092779;28;19947;-77
2022/03/18 01:28:33;;;;;;;;;;;3.80;99.90;;;;;;5092984;28;20357;-78
2022/03/18 01:30:59;;;;;;;;;;;3.80;99.90;;;;;;5093107;28;20268;-79
2022/03/18 01:33:24;;;;;;;;;;;3.70;99.90;;;;;;5092392;28;19978;-78
2022/03/18 01:35:50;;;;;;;;;;;3.60;99.90;;;;;;5092997;28;19915;-78
2022/03/18 01:38:15;;;;;;;;;;;3.60;99.90;;;;;;5091193;28;19908;-78
2022/03/18 01:40:41;;;;;;;;;;;3.60;99.90;;;;;;5094799;28;19916;-78
2022/03/18 01:43:11;;;;;;;;;;;3.60;99.90;;;;;;5096609;28;19929;-77
2022/03/18 01:45:37;;;;;;;;;;;3.50;99.90;;;;;;5093642;28;19908;-78
2022/03/18 01:48:03;;;;;;;;;;;3.60;99.90;;;;;;5093311;28;20077;-78
2022/03/18 01:50:30;;;;;;;;;;;3.50;99.90;;;;;;5092498;28;19954;-78
2022/03/18 01:52:56;;;;;;;;;;;3.50;99.90;;;;;;5097626;28;19927;-78
2022/03/18 01:55:22;;;;;;;;;;;3.50;99.90;;;;;;5113282;28;19932;-79
2022/03/18 01:57:49;;;;;;;;;;;3.40;99.90;;;;;;5093702;28;19915;-79
2022/03/18 02:00:14;;;;;;;;;;;3.30;99.90;;;;;;5091111;28;19909;-78
2022/03/18 02:02:40;;;;;;;;;;;3.10;99.90;;;;;;5092802;28;20323;-78
2022/03/18 02:05:07;;;;;;;;;;;3.10;99.90;;;;;;5092730;28;19908;-78
2022/03/18 02:07:32;;;;;;;;;;;3.10;99.90;;;;;;5092421;28;19912;-78
2022/03/18 02:09:58;;;;;;;;;;;3.10;99.90;;;;;;5092679;28;19908;-78
2022/03/18 02:12:24;;;;;;;;;;;3.10;99.90;;;;;;5092192;28;20307;-78
2022/03/18 02:14:50;;;;;;;;;;;3.10;99.90;;;;;;5092812;28;19994;-78
2022/03/18 02:17:16;;;;;;;;;;;3.20;99.90;;;;;;5092132;28;19908;-78
2022/03/18 02:19:42;;;;;;;;;;;3.10;99.90;;;;;;5091175;28;19950;-78
2022/03/18 02:22:18;;;;;;;;;;;3.10;99.90;;;;;;5092636;28;19915;-78
2022/03/18 02:24:44;;;;;;;;;;;3.10;99.90;;;;;;5092700;28;19915;-78
2022/03/18 02:27:10;;;;;;;;;;;3.10;99.90;;;;;;5092225;28;19908;-77
2022/03/18 02:29:36;;;;;;;;;;;3.10;99.90;;;;;;5092377;28;19923;-78
2022/03/18 02:32:02;;;;;;;;;;;3.10;99.90;;;;;;5092045;28;19908;-78
2022/03/18 02:34:28;;;;;;;;;;;3.00;99.90;;;;;;5092369;28;20276;-78
2022/03/18 02:36:53;;;;;;;;;;;3.10;99.90;;;;;;5111178;28;19908;-78
2022/03/18 02:39:19;;;;;;;;;;;3.20;99.90;;;;;;5106357;28;19978;-78
2022/03/18 02:41:45;;;;;;;;;;;3.10;99.90;;;;;;5096861;28;19912;-78
2022/03/18 02:44:10;;;;;;;;;;;3.10;99.90;;;;;;5094717;28;20365;-78
2022/03/18 02:46:36;;;;;;;;;;;3.00;99.90;;;;;;5096082;28;19908;-78
2022/03/18 02:49:02;;;;;;;;;;;3.00;99.90;;;;;;5096032;28;20084;-78
2022/03/18 02:51:28;;;;;;;;;;;3.10;99.90;;;;;;5095536;28;19908;-78
2022/03/18 02:53:54;;;;;;;;;;;3.10;99.90;;;;;;5102602;28;20322;-78
2022/03/18 02:56:20;;;;;;;;;;;3.10;99.90;;;;;;5100212;28;19915;-79
2022/03/18 02:58:45;;;;;;;;;;;3.10;99.90;;;;;;5096095;28;19908;-78
2022/03/18 03:01:11;;;;;;;;;;;3.00;99.90;;;;;;5096009;28;19912;-78
2022/03/18 03:03:36;;;;;;;;;;;2.90;99.90;;;;;;5095374;28;20317;-79
2022/03/18 03:08:46;;;;;;;;;;;2.90;99.90;;;;;;5096184;28;19958;-78
2022/03/18 03:11:11;;;;;;;;;;;2.90;99.90;;;;;;5095888;28;20311;-78
2022/03/18 03:13:37;;;;;;;;;;;2.80;99.90;;;;;;5095375;28;19916;-79
2022/03/18 03:16:03;;;;;;;;;;;2.90;99.90;;;;;;5095868;28;20364;-79
2022/03/18 03:18:29;;;;;;;;;;;2.90;99.90;;;;;;5095297;28;19912;-78
2022/03/18 03:20:55;;;;;;;;;;;2.80;99.90;;;;;;5109452;28;19908;-78
2022/03/18 03:23:23;;;;;;;;;;;2.70;99.90;;;;;;5095919;28;19909;-78
2022/03/18 03:25:50;;;;;;;;;;;2.70;99.90;;;;;;5095986;28;19908;-78
2022/03/18 03:28:17;;;;;;;;;;;2.70;99.90;;;;;;5095039;28;19915;-77
2022/03/18 03:30:42;;;;;;;;;;;2.70;99.90;;;;;;5095786;28;19919;-78
2022/03/18 03:33:08;;;;;;;;;;;2.70;99.90;;;;;;5095775;28;19920;-78
2022/03/18 03:35:33;;;;;;;;;;;2.70;99.90;;;;;;5094427;28;20044;-78
2022/03/18 03:37:59;;;;;;;;;;;2.70;99.90;;;;;;5095237;28;19999;-79
2022/03/18 03:40:25;;;;;;;;;;;2.60;99.90;;;;;;5094604;28;19908;-78
2022/03/18 03:42:52;;;;;;;;;;;2.60;99.90;;;;;;5094287;28;19947;-78
2022/03/18 03:45:17;;;;;;;;;;;2.60;99.90;;;;;;5093954;28;20404;-77
2022/03/18 03:47:43;;;;;;;;;;;2.60;99.90;;;;;;5095391;28;19951;-78
2022/03/18 03:50:10;;;;;;;;;;;2.60;99.90;;;;;;5095224;28;19908;-78
2022/03/18 03:52:35;;;;;;;;;;;2.60;99.90;;;;;;5094395;28;19977;-78
2022/03/18 03:55:02;;;;;;;;;;;2.50;99.90;;;;;;5095140;28;19912;-78
2022/03/18 03:57:27;;;;;;;;;;;2.50;99.90;;;;;;5094522;28;19915;-78
2022/03/18 03:59:53;;;;;;;;;;;2.40;99.90;;;;;;5094950;28;20002;-78
2022/03/18 04:02:20;;;;;;;;;;;2.40;99.90;;;;;;5094075;28;19908;-78
2022/03/18 04:04:48;;;;;;;;;;;2.20;99.90;;;;;;5095103;28;19953;-78
2022/03/18 04:07:14;;;;;;;;;;;2.20;99.90;;;;;;5095418;28;19908;-79
2022/03/18 04:09:40;;;;;;;;;;;2.30;99.90;;;;;;5094975;28;19930;-78
2022/03/18 04:12:06;;;;;;;;;;;2.30;99.90;;;;;;5093452;28;19958;-79
2022/03/18 04:14:31;;;;;;;;;;;2.30;99.90;;;;;;5094269;28;19908;-78
2022/03/18 04:16:57;;;;;;;;;;;2.30;99.90;;;;;;5094213;28;19908;-78
2022/03/18 04:19:23;;;;;;;;;;;2.30;99.90;;;;;;5093955;28;19908;-78
2022/03/18 04:21:49;;;;;;;;;;;2.40;99.90;;;;;;5094552;28;19999;-78
2022/03/18 04:24:15;;;;;;;;;;;2.30;99.90;;;;;;5094306;28;20336;-78
2022/03/18 04:26:41;;;;;;;;;;;2.30;99.90;;;;;;5093874;28;19912;-79
2022/03/18 04:29:08;;;;;;;;;;;2.30;99.90;;;;;;5094569;28;19995;-79
2022/03/18 04:31:33;;;;;;;;;;;2.20;99.90;;;;;;5093601;28;19912;-79
2022/03/18 04:33:59;;;;;;;;;;;2.20;99.90;;;;;;5094002;28;20262;-79
2022/03/18 04:36:25;;;;;;;;;;;2.20;99.90;;;;;;5093581;28;19908;-79
2022/03/18 04:38:50;;;;;;;;;;;2.20;99.90;;;;;;5094278;28;19908;-79
2022/03/18 04:41:16;;;;;;;;;;;2.20;99.90;;;;;;5093842;28;19908;-78
2022/03/18 04:43:41;;;;;;;;;;;2.20;99.90;;;;;;5093608;28;20353;-78
2022/03/18 04:46:07;;;;;;;;;;;2.20;99.90;;;;;;5093997;28;20238;-78
2022/03/18 04:48:32;;;;;;;;;;;2.10;99.90;;;;;;5093572;28;19913;-79
2022/03/18 04:50:58;;;;;;;;;;;2.10;99.90;;;;;;5094021;28;19908;-79
2022/03/18 04:53:23;;;;;;;;;;;2.30;99.90;;;;;;5093515;28;20018;-79
2022/03/18 04:55:49;;;;;;;;;;;2.30;99.90;;;;;;5094009;28;19908;-79
2022/03/18 04:58:15;;;;;;;;;;;2.40;99.90;;;;;;5092971;28;20007;-78
2022/03/18 05:00:40;;;;;;;;;;;2.30;99.90;;;;;;5093272;28;19904;-79
2022/03/18 05:03:07;;;;;;;;;;;2.30;99.90;;;;;;5092390;28;19990;-78
2022/03/18 05:05:32;;;;;;;;;;;2.30;99.90;;;;;;5092974;28;19919;-78
2022/03/18 05:07:58;;;;;;;;;;;2.30;99.90;;;;;;5093606;28;19908;-79
2022/03/18 05:10:24;;;;;;;;;;;2.40;99.90;;;;;;5092858;28;20323;-78
2022/03/18 05:12:50;;;;;;;;;;;2.30;99.90;;;;;;5093426;28;19923;-79
2022/03/18 05:15:16;;;;;;;;;;;2.20;99.90;;;;;;5093486;28;19954;-78
2022/03/18 05:17:48;;;;;;;;;;;2.20;99.90;;;;;;5092931;28;19960;-78
2022/03/18 05:20:14;;;;;;;;;;;2.20;99.90;;;;;;5093259;28;19909;-78
2022/03/18 05:22:39;;;;;;;;;;;2.10;99.90;;;;;;5096661;28;19915;-78
2022/03/18 05:25:05;;;;;;;;;;;2.00;99.90;;;;;;5093877;28;19943;-78
2022/03/18 05:27:31;;;;;;;;;;;2.10;99.90;;;;;;5092949;28;20361;-78
2022/03/18 05:29:56;;;;;;;;;;;2.00;99.90;;;;;;5093309;28;19915;-78
2022/03/18 05:32:22;;;;;;;;;;;2.00;99.90;;;;;;5092559;28;20411;-76
2022/03/18 05:34:48;;;;;;;;;;;1.90;99.90;;;;;;5092873;28;19915;-78
2022/03/18 05:37:13;;;;;;;;;;;2.00;99.90;;;;;;5093468;28;20341;-78
2022/03/18 05:39:39;;;;;;;;;;;2.00;99.90;;;;;;5092641;28;19955;-79
2022/03/18 05:42:05;;;;;;;;;;;2.00;99.90;;;;;;5093244;28;20010;-78
2022/03/18 05:44:30;;;;;;;;;;;2.00;99.90;;;;;;5092639;28;19954;-78
2022/03/18 05:46:56;;;;;;;;;;;2.00;99.90;;;;;;5126017;27;19908;-78
2022/03/18 05:49:22;;;;;;;;;;;2.00;99.90;;;;;;5093103;28;19935;-79
2022/03/18 05:51:48;;;;;;;;;;;2.10;99.90;;;;;;5092281;28;19966;-79
2022/03/18 05:54:14;;;;;;;;;;;2.10;99.90;;;;;;5126097;27;19955;-79
2022/03/18 05:56:54;;;;;;;;;;;2.10;99.90;;;;;;5092343;28;19931;-78
2022/03/18 05:59:27;;;;;;;;;;;2.10;99.90;;;;;;5092867;28;19908;-78
2022/03/18 06:01:57;;;;;;;;;;;2.10;99.90;;;;;;5092910;28;20254;-78
2022/03/18 06:04:23;;;;;;;;;;;2.00;99.90;;;;;;5092760;28;19965;-78
2022/03/18 06:06:49;;;;;;;;;;;2.10;99.90;;;;;;5092336;28;19908;-79
2022/03/18 06:12:02;;;;;;;;;;;2.10;99.90;;;;;;5096837;28;19915;-78
2022/03/18 06:14:29;;;;;;;;;;;2.10;99.90;;;;;;5096066;28;19915;-78
2022/03/18 06:16:56;;;;;;;;;;;2.10;99.90;;;;;;5096818;28;19908;-79
2022/03/18 06:19:22;;;;;;;;;;;2.10;99.90;;;;;;5096356;28;19908;-78
2022/03/18 06:21:48;;;;;;;;;;;2.10;99.90;;;;;;5095908;28;20406;-78
2022/03/18 06:24:15;;;;;;;;;;;2.20;99.90;;;;;;5096292;28;19908;-79
2022/03/18 06:26:40;;;;;;;;;;;2.20;99.90;;;;;;5096075;28;19915;-79
2022/03/18 06:29:06;;;;;;;;;;;2.10;99.90;;;;;;5096340;28;19909;-79
2022/03/18 06:31:32;;;;;;;;;;;2.10;99.90;;;;;;5094922;28;19961;-79
2022/03/18 06:33:58;;;;;;;;;;;1.90;99.90;;;;;;5096365;28;19916;-79
2022/03/18 06:36:24;;;;;;;;;;;1.90;99.90;;;;;;5100118;28;19908;-80
2022/03/18 06:38:49;;;;;;;;;;;1.80;99.90;;;;;;5105687;28;19992;-79
2022/03/18 06:41:16;;;;;;;;;;;1.80;99.90;;;;;;5096465;28;19931;-79
2022/03/18 06:43:42;;;;;;;;;;;1.80;99.90;;;;;;5095842;28;19912;-79
2022/03/18 06:46:08;;;;;;;;;;;1.90;99.90;;;;;;5096424;28;19957;-79
2022/03/18 06:48:33;;;;;;;;;;;1.90;99.90;;;;;;5095552;28;19951;-79
2022/03/18 06:51:00;;;;;;;;;;;1.90;99.90;;;;;;5096072;28;19908;-79
2022/03/18 06:53:25;;;;;;;;;;;1.90;99.90;;;;;;5095713;28;19920;-79
2022/03/18 06:55:51;;;;;;;;;;;1.90;99.90;;;;;;5095663;28;20436;-79
2022/03/18 06:58:17;;;;;;;;;;;1.90;99.90;;;;;;5096484;28;19954;-79
2022/03/18 07:00:42;;;;;;;;;;;1.90;99.90;;;;;;5095526;28;20288;-79
2022/03/18 07:03:08;;;;;;;;;;;1.90;99.90;;;;;;5095325;28;19947;-78
2022/03/18 07:05:34;;;;;;;;;;;2.00;99.90;;;;;;5095217;28;20409;-78
2022/03/18 07:07:59;;;;;;;;;;;2.10;99.90;;;;;;5096123;28;19987;-78
2022/03/18 07:10:25;;;;;;;;;;;2.20;99.90;;;;;;5095719;28;20284;-79
2022/03/18 07:12:51;;;;;;;;;;;2.30;99.90;;;;;;5095365;28;20018;-79
2022/03/18 07:15:16;;;;;;;;;;;2.40;99.90;;;;;;5095586;28;20272;-79
2022/03/18 07:18:01;;;;;;;;;;;2.50;99.90;;;;;;5095249;28;19919;-79
2022/03/18 07:20:28;;;;;;;;;;;2.60;99.90;;;;;;5094644;28;20291;-80
2022/03/18 07:22:59;;;;;;;;;;;2.80;99.90;;;;;;5095227;28;19908;-79
2022/03/18 07:25:25;;;;;;;;;;;2.80;99.90;;;;;;5095273;28;20289;-80
2022/03/18 07:27:50;;;;;;;;;;;2.90;99.90;;;;;;5094820;28;19912;-79
2022/03/18 07:30:16;;;;;;;;;;;3.10;99.90;;;;;;5095628;28;19912;-79
2022/03/18 07:32:41;;;;;;;;;;;3.10;99.90;;;;;;5095204;28;19920;-79
2022/03/18 07:35:08;;;;;;;;;;;3.10;99.90;;;;;;5095036;28;19915;-79
2022/03/18 07:37:33;;;;;;;;;;;3.30;99.90;;;;;;5094574;28;19915;-78
2022/03/18 07:39:59;;;;;;;;;;;3.40;99.90;;;;;;5093902;28;19912;-79
2022/03/18 07:42:24;;;;;;;;;;;3.50;99.90;;;;;;5095252;28;19961;-79
2022/03/18 07:44:50;;;;;;;;;;;3.70;99.90;;;;;;5094628;28;20519;-79
2022/03/18 07:47:15;;;;;;;;;;;3.80;99.90;;;;;;5095187;28;19908;-79
2022/03/18 07:49:41;;;;;;;;;;;3.90;99.90;;;;;;5094578;28;19991;-79
2022/03/18 07:52:07;;;;;;;;;;;4.00;99.90;;;;;;5099751;28;19935;-79
2022/03/18 07:54:33;;;;;;;;;;;4.20;99.90;;;;;;5096180;28;19916;-77
2022/03/18 07:56:58;;;;;;;;;;;4.30;99.90;;;;;;5095075;28;19909;-79
2022/03/18 07:59:24;;;;;;;;;;;4.50;99.90;;;;;;5095032;28;19909;-79
2022/03/18 08:01:49;;;;;;;;;;;4.60;99.90;;;;;;5094455;28;19934;-79
2022/03/18 08:04:15;;;;;;;;;;;4.70;99.90;;;;;;5093587;28;19916;-79
2022/03/18 08:06:41;;;;;;;;;;;4.80;99.90;;;;;;5094102;28;19974;-79
2022/03/18 08:09:06;;;;;;;;;;;5.00;99.90;;;;;;5094746;28;20345;-78
2022/03/18 08:11:32;;;;;;;;;;;5.00;99.90;;;;;;5094626;28;19912;-78
2022/03/18 08:13:58;;;;;;;;;;;5.20;99.90;;;;;;5094428;28;19962;-79
2022/03/18 08:16:26;;;;;;;;;;;5.30;99.90;;;;;;5094397;28;19916;-80
2022/03/18 08:18:51;;;;;;;;;;;5.30;99.90;;;;;;5093916;28;19909;-79
2022/03/18 08:21:17;;;;;;;;;;;5.50;99.90;;;;;;5094157;28;19915;-79
2022/03/18 08:23:43;;;;;;;;;;;5.60;99.90;;;;;;5094006;28;19908;-78
2022/03/18 08:26:08;;;;;;;;;;;5.80;99.90;;;;;;5094519;28;19915;-78
2022/03/18 08:28:34;;;;;;;;;;;5.90;99.90;;;;;;5094050;28;20361;-77
2022/03/18 08:30:59;;;;;;;;;;;6.00;99.90;;;;;;5094086;28;20003;-78
2022/03/18 08:33:26;;;;;;;;;;;6.20;99.90;;;;;;5093175;28;20016;-79
2022/03/18 08:35:51;;;;;;;;;;;6.40;99.90;;;;;;5094297;28;19912;-77
2022/03/18 08:38:17;;;;;;;;;;;6.70;99.90;;;;;;5091236;28;19915;-78
2022/03/18 08:40:43;;;;;;;;;;;7.10;99.90;;;;;;5091134;28;19912;-78
2022/03/18 08:43:09;;;;;;;;;;;7.70;99.90;;;;;;5093823;28;19931;-78
2022/03/18 08:45:35;;;;;;;;;;;7.80;99.90;;;;;;5093844;28;19908;-77
2022/03/18 08:48:00;;;;;;;;;;;8.00;99.90;;;;;;5093628;28;19909;-78
2022/03/18 08:50:27;;;;;;;;;;;8.20;99.90;;;;;;5093912;28;19914;-78
2022/03/18 08:52:53;;;;;;;;;;;8.40;99.90;;;;;;5093131;28;19931;-77
2022/03/18 08:55:19;;;;;;;;;;;8.60;99.90;;;;;;5093526;28;19970;-78
2022/03/18 08:57:45;;;;;;;;;;;8.80;99.90;;;;;;5093016;28;20364;-78
2022/03/18 09:00:14;;;;;;;;;;;8.80;99.90;;;;;;5093634;28;19954;-78
2022/03/18 09:02:40;;;;;;;;;;;8.90;99.90;;;;;;5093343;28;20352;-76
2022/03/18 09:05:07;;;;;;;;;;;9.10;99.90;;;;;;5093288;28;19953;-77
2022/03/18 09:07:33;;;;;;;;;;;9.10;99.90;;;;;;5104793;28;19912;-77
2022/03/18 09:09:59;;;;;;;;;;;9.10;99.90;;;;;;5092883;28;19912;-77
2022/03/18 09:12:24;;;;;;;;;;;9.20;99.90;;;;;;5091840;28;20356;-77
2022/03/18 09:14:50;;;;;;;;;;;9.20;99.90;;;;;;5093279;28;19915;-77
2022/03/18 09:17:16;;;;;;;;;;;9.30;99.90;;;;;;5093398;28;19961;-77
2022/03/18 09:19:42;;;;;;;;;;;9.40;99.90;;;;;;5092787;28;19908;-76
2022/03/18 09:22:08;;;;;;;;;;;9.40;99.90;;;;;;5093527;28;19908;-78
2022/03/18 09:24:34;;;;;;;;;;;9.40;99.90;;;;;;5093300;28;19909;-78
2022/03/18 09:27:00;;;;;;;;;;;9.60;99.90;;;;;;5091210;28;19908;-77
2022/03/18 09:29:26;;;;;;;;;;;9.60;99.90;;;;;;5092928;28;19914;-77
2022/03/18 09:31:52;;;;;;;;;;;9.60;99.90;;;;;;5092503;28;19923;-77
2022/03/18 09:34:17;;;;;;;;;;;9.70;99.90;;;;;;5092694;28;20318;-77
2022/03/18 09:36:44;;;;;;;;;;;9.70;99.90;;;;;;5092413;28;20441;-77
2022/03/18 09:39:09;;;;;;;;;;;9.80;99.90;;;;;;5125803;27;19943;-78
2022/03/18 09:41:35;;;;;;;;;;;9.90;99.90;;;;;;5092680;28;19966;-78
2022/03/18 09:44:00;;;;;;;;;;;9.90;99.90;;;;;;5091862;28;20345;-77
2022/03/18 09:46:26;;;;;;;;;;;10.00;99.90;;;;;;5091273;28;20367;-78
2022/03/18 09:48:52;;;;;;;;;;;10.20;99.90;;;;;;5092208;28;19955;-76
2022/03/18 09:51:18;;;;;;;;;;;10.20;99.90;;;;;;5092637;28;19989;-77
2022/03/18 09:53:45;;;;;;;;;;;10.30;99.90;;;;;;5091326;28;20192;-80
2022/03/18 09:56:11;;;;;;;;;;;10.40;99.90;;;;;;5092869;28;19912;-79
2022/03/18 09:58:37;;;;;;;;;;;10.50;99.90;;;;;;5093026;28;20345;-78
2022/03/18 10:01:04;;;;;;;;;;;10.70;99.90;;;;;;5092271;28;19919;-78
2022/03/18 10:03:37;;;;;;;;;;;10.70;99.90;;;;;;5092583;28;19962;-78
2022/03/18 10:06:04;;;;;;;;;;;10.80;99.90;;;;;;5091882;28;19977;-78
2022/03/18 10:08:36;;;;;;;;;;;10.70;99.90;;;;;;5092762;28;19943;-78
2022/03/18 10:11:18;;;;;;;;;;;10.80;99.90;;;;;;5091796;28;19998;-78
2022/03/18 10:13:56;;;;;;;;;;;11.00;99.90;;;;;;5091934;28;19923;-78
2022/03/18 10:16:30;;;;;;;;;;;10.90;99.90;;;;;;5091357;28;20368;-78
2022/03/18 10:18:55;;;;;;;;;;;10.90;99.90;;;;;;5091683;28;20283;-79
2022/03/18 10:21:21;;;;;;;;;;;11.00;99.90;;;;;;5098492;28;19915;-77
2022/03/18 10:23:46;;;;;;;;;;;11.00;99.90;;;;;;5097397;28;19936;-78
2022/03/18 10:26:14;;;;;;;;;;;11.00;99.90;;;;;;5092648;28;19912;-78
2022/03/18 10:28:41;;;;;;;;;;;11.00;99.90;;;;;;5092283;28;19908;-78
2022/03/18 10:31:22;;;;;;;;;;;11.00;99.90;;;;;;5091778;28;19908;-78
2022/03/18 10:39:28;;;;;;;;;;;11.10;99.90;;;;;;5092549;28;20376;-78
2022/03/18 10:41:55;;;;;;;;;;;11.20;99.90;;;;;;5091231;28;19998;-78
2022/03/18 10:44:20;;;;;;;;;;;11.40;99.90;;;;;;5092316;28;19947;-78
2022/03/18 10:46:48;;;;;;;;;;;11.40;99.90;;;;;;5091733;28;19947;-78
2022/03/18 10:49:13;;;;;;;;;;;11.40;99.90;;;;;;5092036;28;20331;-79
2022/03/18 10:51:39;;;;;;;;;;;11.60;99.90;;;;;;5091820;28;19920;-79
2022/03/18 10:54:05;;;;;;;;;;;11.50;99.90;;;;;;5091732;28;19920;-78
2022/03/18 10:56:49;;;;;;;;;;;11.50;99.90;;;;;;5094507;28;19908;-78
2022/03/18 10:59:17;;;;;;;;;;;11.50;99.90;;;;;;5097428;28;19908;-77
2022/03/18 11:01:45;;;;;;;;;;;11.50;99.90;;;;;;5097180;28;20255;-77
2022/03/18 11:04:11;;;;;;;;;;;11.60;99.90;;;;;;5097025;28;19908;-80
2022/03/18 11:06:37;;;;;;;;;;;11.50;99.90;;;;;;5095977;28;19994;-80
2022/03/18 11:09:03;;;;;;;;;;;11.60;99.90;;;;;;5094912;28;19958;-79
2022/03/18 11:11:29;;;;;;;;;;;11.60;99.90;;;;;;5095214;28;19912;-80
2022/03/18 11:14:01;;;;;;;;;;;11.70;99.90;;;;;;5094690;28;19916;-80
2022/03/18 11:16:29;;;;;;;;;;;11.70;99.90;;;;;;5096007;28;19908;-79
2022/03/18 11:18:56;;;;;;;;;;;12.00;99.90;;;;;;5095169;28;19908;-79
2022/03/18 11:21:25;;;;;;;;;;;11.90;99.90;;;;;;5095673;28;19908;-79
2022/03/18 11:23:55;;;;;;;;;;;11.90;99.90;;;;;;5094985;28;19954;-79
2022/03/18 11:26:21;;;;;;;;;;;11.80;99.90;;;;;;5096207;28;20296;-80
2022/03/18 11:29:04;;;;;;;;;;;11.90;99.90;;;;;;5095647;28;19912;-78
2022/03/18 11:31:29;;;;;;;;;;;11.90;99.90;;;;;;5095558;28;19955;-79
2022/03/18 11:34:14;;;;;;;;;;;12.00;99.90;;;;;;5094891;28;20340;-79
2022/03/18 11:37:05;;;;;;;;;;;12.00;99.90;;;;;;5099759;28;19908;-80
2022/03/18 11:39:30;;;;;;;;;;;12.00;99.90;;;;;;5099201;28;19958;-80
2022/03/18 11:41:57;;;;;;;;;;;12.20;99.90;;;;;;5095100;28;19955;-79
2022/03/18 11:44:41;;;;;;;;;;;12.30;99.90;;;;;;5095241;28;19919;-80
2022/03/18 11:47:18;;;;;;;;;;;12.30;99.90;;;;;;5094649;28;20123;-80
2022/03/18 11:49:44;;;;;;;;;;;12.50;99.90;;;;;;5095087;28;20002;-80
2022/03/18 11:52:10;;;;;;;;;;;12.50;99.90;;;;;;5094420;28;19963;-80
2022/03/18 11:54:48;;;;;;;;;;;12.40;99.90;;;;;;5093840;28;19920;-78
2022/03/18 11:57:31;;;;;;;;;;;12.40;99.90;;;;;;5094736;28;19908;-80
2022/03/18 12:00:00;;;;;;;;;;;12.50;99.90;;;;;;5094398;28;20008;-79
2022/03/18 12:02:32;;;;;;;;;;;12.60;99.90;;;;;;5094460;28;19908;-80
2022/03/18 12:04:58;;;;;;;;;;;12.80;99.90;;;;;;5094137;28;19953;-80
2022/03/18 12:07:25;;;;;;;;;;;12.70;99.90;;;;;;5094905;28;19908;-79
2022/03/18 12:10:03;;;;;;;;;;;12.70;99.90;;;;;;5094676;28;19909;-78
2022/03/18 12:12:41;;;;;;;;;;;12.60;99.90;;;;;;5094630;28;19918;-80
2022/03/18 12:15:16;;;;;;;;;;;12.60;99.90;;;;;;5092548;28;20406;-80
2022/03/18 12:17:43;;;;;;;;;;;12.50;99.90;;;;;;5093177;28;19912;-80
2022/03/18 12:20:09;;;;;;;;;;;12.40;99.90;;;;;;5093541;28;19914;-80
2022/03/18 12:22:39;;;;;;;;;;;12.50;99.90;;;;;;5094567;28;19908;-80
2022/03/18 12:25:05;;;;;;;;;;;12.50;99.90;;;;;;5093941;28;19951;-79
2022/03/18 12:27:36;;;;;;;;;;;12.50;99.90;;;;;;5094358;28;19908;-80
2022/03/18 12:30:03;;;;;;;;;;;12.50;99.90;;;;;;5093831;28;20380;-80
2022/03/18 12:32:29;;;;;;;;;;;12.60;99.90;;;;;;5094190;28;19965;-80
2022/03/18 12:34:55;;;;;;;;;;;12.70;99.90;;;;;;5094014;28;19916;-80
2022/03/18 12:37:30;;;;;;;;;;;12.80;99.90;;;;;;5094809;28;19915;-80
2022/03/18 12:40:01;;;;;;;;;;;13.00;99.90;;;;;;5093768;28;19915;-79
2022/03/18 12:42:27;;;;;;;;;;;13.40;99.90;;;;;;5093920;28;19962;-77
2022/03/18 12:44:58;;;;;;;;;;;13.50;99.90;;;;;;5093548;28;20257;-76
2022/03/18 12:47:26;;;;;;;;;;;13.70;99.90;;;;;;5094199;28;19958;-78
2022/03/18 12:49:52;;;;;;;;;;;13.80;99.90;;;;;;5093850;28;20260;-76
2022/03/18 12:52:19;;;;;;;;;;;13.80;99.90;;;;;;5102733;28;19955;-79
2022/03/18 12:55:03;;;;;;;;;;;13.80;99.90;;;;;;5102298;28;19943;-78
2022/03/18 12:57:31;;;;;;;;;;;13.70;99.90;;;;;;5093791;28;19912;-78
2022/03/18 12:59:57;;;;;;;;;;;13.70;99.90;;;;;;5093049;28;19915;-77
2022/03/18 13:02:24;;;;;;;;;;;13.60;99.90;;;;;;5092108;28;19916;-78
2022/03/18 13:04:56;;;;;;;;;;;13.60;99.90;;;;;;5093501;28;19908;-78
2022/03/18 13:07:24;;;;;;;;;;;13.50;99.90;;;;;;5093628;28;19956;-78
2022/03/18 13:09:49;;;;;;;;;;;13.50;99.90;;;;;;5092195;28;19968;-80
2022/03/18 13:12:22;;;;;;;;;;;13.40;99.90;;;;;;5092601;28;20227;-79
2022/03/18 13:14:53;;;;;;;;;;;13.40;99.90;;;;;;5093133;28;20428;-79
2022/03/18 13:17:36;;;;;;;;;;;13.40;99.90;;;;;;5091786;28;19956;-80
2022/03/18 13:20:02;;;;;;;;;;;13.50;99.90;;;;;;5092377;28;19908;-79
2022/03/18 13:22:28;;;;;;;;;;;13.40;99.90;;;;;;5093406;28;19919;-79
2022/03/18 13:24:55;;;;;;;;;;;13.40;99.90;;;;;;5093504;28;19943;-79
2022/03/18 13:27:21;;;;;;;;;;;13.30;99.90;;;;;;5093224;28;19908;-79
2022/03/18 13:32:52;;;;;;;;;;;13.30;99.90;;;;;;5092845;28;19965;-79
2022/03/18 13:35:18;;;;;;;;;;;13.50;99.90;;;;;;5092541;28;19916;-79
2022/03/18 13:38:03;;;;;;;;;;;13.70;99.90;;;;;;5092647;28;20289;-79
2022/03/18 13:40:29;;;;;;;;;;;13.80;99.90;;;;;;5093301;28;19911;-80
2022/03/18 13:43:03;;;;;;;;;;;14.00;99.90;;;;;;5092942;28;19931;-80
2022/03/18 13:45:29;;;;;;;;;;;14.00;99.90;;;;;;5092496;28;19965;-79
2022/03/18 13:47:54;;;;;;;;;;;14.20;99.90;;;;;;5092936;28;19912;-79
2022/03/18 13:50:20;;;;;;;;;;;14.30;99.90;;;;;;5092607;28;19908;-79
2022/03/18 13:52:48;;;;;;;;;;;14.30;99.90;;;;;;5092634;28;19966;-80
2022/03/18 13:55:32;;;;;;;;;;;14.30;99.90;;;;;;5092095;28;19908;-78
2022/03/18 13:57:58;;;;;;;;;;;14.40;99.90;;;;;;5090205;28;20391;-78
2022/03/18 14:00:25;;;;;;;;;;;14.40;99.90;;;;;;5092881;28;19914;-80
2022/03/18 14:03:03;;;;;;;;;;;14.50;99.90;;;;;;5092922;28;19912;-80
2022/03/18 14:05:29;;;;;;;;;;;14.60;99.90;;;;;;5091636;28;20280;-80
2022/03/18 14:07:56;;;;;;;;;;;14.60;99.90;;;;;;5111263;28;19974;-80
2022/03/18 14:10:33;;;;;;;;;;;14.70;99.90;;;;;;5092577;28;19915;-78
2022/03/18 14:13:02;;;;;;;;;;;14.70;99.90;;;;;;5092230;28;19920;-77
2022/03/18 14:15:31;;;;;;;;;;;14.80;99.90;;;;;;5092081;28;19909;-78
2022/03/18 14:18:09;;;;;;;;;;;14.80;99.90;;;;;;5092172;28;19952;-78
2022/03/18 14:20:55;;;;;;;;;;;14.70;99.90;;;;;;5092622;28;19935;-78
2022/03/18 14:23:31;;;;;;;;;;;14.70;99.90;;;;;;5092339;28;19938;-79
2022/03/18 14:25:58;;;;;;;;;;;14.60;99.90;;;;;;5092633;28;19915;-79
2022/03/18 14:28:23;;;;;;;;;;;14.60;99.90;;;;;;5092070;28;19965;-79
2022/03/18 14:30:49;;;;;;;;;;;14.60;99.90;;;;;;5095332;28;19912;-79
2022/03/18 14:33:19;;;;;;;;;;;14.60;99.90;;;;;;5096058;28;19916;-81
2022/03/18 14:35:45;;;;;;;;;;;14.60;99.90;;;;;;5096198;28;20414;-78
2022/03/18 14:38:11;;;;;;;;;;;14.50;99.90;;;;;;5096027;28;20004;-79
2022/03/18 14:40:37;;;;;;;;;;;14.60;99.90;;;;;;5113936;28;19915;-78
2022/03/18 14:43:03;;;;;;;;;;;14.50;99.90;;;;;;5110283;28;19912;-78
2022/03/18 14:45:29;;;;;;;;;;;14.50;99.90;;;;;;5097125;28;19912;-79
2022/03/18 14:47:55;;;;;;;;;;;14.50;99.90;;;;;;5095204;28;19908;-79